Time;durP1;ratioP1;P1;durP2;ratioP2;P2;SDS_P1;SDS_P2;PMS_P1;PMS_P2;Temp;Humidity;BMP_temperature;BMP_pressure;BME280_temperature;BME280_humidity;BME280_pressure;Samples;Min_cycle;Max_cycle;Signal;HPM_P1;HPM_P2
2022/06/08 00:00:32;;;;;;;;;4.50;3.00;;;;;20.79;52.25;100472.28;5027993;28;45418;-48
2022/06/08 00:03:08;;;;;;;;;4.00;2.75;;;;;20.73;52.39;100465.91;4996395;28;45161;-50
2022/06/08 00:05:33;;;;;;;;;3.20;0.80;;;;;20.54;52.49;100437.88;5011040;28;45423;-52
2022/06/08 00:07:59;;;;;;;;;1.00;1.00;;;;;20.72;52.17;100458.69;4996768;28;45393;-50
2022/06/08 00:10:24;;;;;;;;;4.25;1.75;;;;;20.74;52.39;100463.97;4996247;28;46609;-53
2022/06/08 00:12:50;;;;;;;;;5.50;2.50;;;;;20.75;52.39;100460.88;4996247;28;45440;-54
2022/06/08 00:15:16;;;;;;;;;5.00;3.75;;;;;20.70;52.32;100442.22;5028122;28;45387;-51
2022/06/08 00:17:41;;;;;;;;;7.25;6.00;;;;;20.38;52.38;100396.13;4996506;28;45375;-54
2022/06/08 00:20:08;;;;;;;;;6.00;4.75;;;;;20.68;52.07;100441.69;4974507;28;46680;-52
2022/06/08 00:22:34;;;;;;;;;14.40;14.40;;;;;20.56;52.37;100419.72;4988003;28;45465;-49
2022/06/08 00:24:59;;;;;;;;;18.25;15.75;;;;;;;;5027804;28;45295;-53
2022/06/08 00:27:24;;;;;;;;;14.25;14.25;;;;;20.55;52.75;100432.00;4996418;28;45314;-52
2022/06/08 00:29:50;;;;;;;;;21.00;13.75;;;;;20.62;52.09;100439.22;4995947;28;46425;-53
2022/06/08 00:32:15;;;;;;;;;15.75;14.75;;;;;20.52;52.54;100431.72;4996032;28;45308;-55
2022/06/08 00:34:41;;;;;;;;;12.00;10.75;;;;;20.35;52.48;100402.28;4995793;28;45392;-52
2022/06/08 00:37:06;;;;;;;;;9.50;9.50;;;;;20.53;52.73;100431.47;4996441;28;45362;-47
2022/06/08 00:39:32;;;;;;;;;13.00;9.75;;;;;20.44;52.82;100424.81;4995676;28;46716;-55
2022/06/08 00:41:59;;;;;;;;;7.00;7.00;;;;;20.45;53.23;100424.50;4996168;28;45326;-53
2022/06/08 00:44:28;;;;;;;;;9.20;6.60;;;;;20.45;53.46;100418.94;4996204;28;45441;-52
2022/06/08 00:46:53;;;;;;;;;7.00;4.20;;;;;20.39;53.38;100403.38;4979448;28;45514;-51
2022/06/08 00:49:20;;;;;;;;;4.25;3.50;;;;;20.44;53.74;100410.88;4975165;28;45346;-51
2022/06/08 00:51:45;;;;;;;;;3.80;2.60;;;;;20.45;53.72;100418.13;4974946;28;45380;-54
2022/06/08 00:54:15;;;;;;;;;6.50;4.00;;;;;20.40;54.00;100410.63;4959083;28;45417;-55
2022/06/08 00:56:43;;;;;;;;;1.80;1.80;;;;;20.26;54.34;100390.91;4959758;28;45416;-54
2022/06/08 00:59:09;;;;;;;;;3.20;2.60;;;;;20.35;54.00;100395.88;4959008;28;46349;-53
2022/06/08 01:01:34;;;;;;;;;4.25;2.25;;;;;20.33;54.63;100393.38;4975358;28;45452;-53
2022/06/08 01:04:18;;;;;;;;;4.50;1.50;;;;;20.37;54.58;100391.69;4976179;28;45340;-55
2022/06/08 01:06:47;;;;;;;;;5.60;5.40;;;;;20.41;54.49;100401.16;4975457;28;45435;-52
2022/06/08 01:09:16;;;;;;;;;2.40;0.80;;;;;20.19;54.73;100376.44;4974870;28;46063;-54
2022/06/08 01:11:43;;;;;;;;;3.20;2.20;;;;;20.27;54.74;100398.13;4959351;28;45838;-55
2022/06/08 01:14:13;;;;;;;;;1.60;1.60;;;;;20.35;55.11;100404.22;4974667;28;45486;-52
2022/06/08 01:17:04;;;;;;;;;2.20;2.20;;;;;20.13;55.12;100358.91;4975495;28;45200;-50
2022/06/08 01:19:32;;;;;;;;;2.20;2.20;;;;;20.29;55.21;100390.31;4975384;28;45537;-54
2022/06/08 01:21:59;;;;;;;;;1.60;1.60;;;;;20.29;55.31;100395.88;4976128;28;45329;-52
2022/06/08 01:24:24;;;;;;;;;2.00;0.80;;;;;20.28;55.51;100402.59;4975986;28;45453;-50
2022/06/08 01:26:56;;;;;;;;;1.50;1.50;;;;;20.30;54.99;100408.72;4975039;28;45564;-56
2022/06/08 01:29:35;;;;;;;;;3.20;2.40;;;;;20.10;55.47;100358.66;4974609;28;46533;-52
2022/06/08 01:32:04;;;;;;;;;2.60;2.60;;;;;20.28;55.26;100380.28;4958887;28;45352;-54
2022/06/08 01:34:47;;;;;;;;;4.20;2.40;;;;;20.24;55.03;100395.09;4975993;28;45408;-53
2022/06/08 01:37:25;;;;;;;;;3.60;1.40;;;;;20.23;55.01;100399.00;4975964;28;45339;-52
2022/06/08 01:40:17;;;;;;;;;3.40;2.40;;;;;20.12;55.27;100378.72;4975185;28;46460;-54
2022/06/08 01:43:28;;;;;;;;;2.20;2.20;;;;;20.18;55.44;100377.56;4974438;28;45452;-52
2022/06/08 01:46:18;;;;;;;;;2.20;2.20;;;;;20.15;55.28;100378.13;4934428;28;45641;-51
2022/06/08 01:48:52;;;;;;;;;3.00;1.60;;;;;20.13;55.08;100399.88;4934719;28;45425;-52
2022/06/08 01:51:31;;;;;;;;;3.00;3.00;;;;;20.08;55.35;100406.31;4963806;28;46477;-51
2022/06/08 01:54:08;;;;;;;;;3.00;3.00;;;;;20.07;55.44;100404.66;4974465;28;45321;-50
2022/06/08 01:57:00;;;;;;;;;3.40;3.00;;;;;19.95;55.63;100388.25;4976797;28;45380;-54
2022/06/08 01:59:30;;;;;;;;;2.00;2.00;;;;;20.05;55.46;100395.72;4978604;28;45481;-56
2022/06/08 02:02:10;;;;;;;;;1.80;1.80;;;;;20.07;55.91;100392.66;4977545;28;45638;-50
2022/06/08 02:04:48;;;;;;;;;3.40;1.80;;;;;20.05;55.91;100392.94;4978449;28;45368;-52
2022/06/08 02:07:23;;;;;;;;;3.80;2.80;;;;;20.01;56.17;100389.06;4977724;28;45223;-53
2022/06/08 02:10:00;;;;;;;;;4.00;3.00;;;;;19.78;56.33;100363.47;4967557;28;45328;-55
2022/06/08 02:12:25;;;;;;;;;4.60;2.40;;;;;19.88;56.65;100362.63;4976987;28;45414;-54
2022/06/08 02:14:55;;;;;;;;;4.75;3.00;;;;;19.89;56.19;100362.34;4960941;28;45479;-50
2022/06/08 02:17:41;;;;;;;;;2.40;2.20;;;;;19.68;57.23;100332.91;4961588;28;45407;-50
2022/06/08 02:20:21;;;;;;;;;4.00;4.00;;;;;19.91;57.14;100367.63;4961734;28;46118;-54
2022/06/08 02:23:00;;;;;;;;;3.20;2.20;;;;;19.84;57.08;100365.13;4961183;28;46732;-55
2022/06/08 02:25:52;;;;;;;;;2.60;2.60;;;;;19.57;57.62;100337.66;4961483;28;45311;-54
2022/06/08 02:28:57;;;;;;;;;3.00;2.00;;;;;19.86;57.80;100387.94;4977382;28;45428;-53
2022/06/08 02:31:45;;;;;;;;;2.60;1.80;;;;;19.83;57.93;100388.53;4965685;28;45859;-57
2022/06/08 02:34:31;;;;;;;;;2.20;1.80;;;;;19.78;57.92;100375.47;4976800;28;45886;-52
2022/06/08 02:37:19;;;;;;;;;1.00;1.00;;;;;19.78;57.95;100380.19;4963202;28;45383;-55
2022/06/08 02:39:48;;;;;;;;;2.60;2.40;;;;;19.54;58.30;100335.44;4976607;28;45403;-52
2022/06/08 02:42:17;;;;;;;;;3.00;3.00;;;;;19.64;58.67;100368.84;4977611;28;45351;-51
2022/06/08 02:44:43;;;;;;;;;2.80;1.80;;;;;19.66;58.74;100365.75;4960951;28;45643;-50
2022/06/08 02:47:18;;;;;;;;;4.00;2.00;;;;;19.62;58.59;100366.31;4971619;28;45399;-52
2022/06/08 02:49:43;;;;;;;;;3.40;2.40;;;;;19.58;59.12;100362.44;4997752;28;45362;-50
2022/06/08 02:52:27;;;;;;;;;3.50;3.50;;;;;19.53;59.13;100359.66;4962127;28;45569;-50
2022/06/08 02:54:53;;;;;;;;;3.00;3.00;;;;;19.49;59.22;100353.00;5005074;28;46602;-51
2022/06/08 02:57:46;;;;;;;;;4.00;3.25;;;;;19.50;59.44;100349.09;5013442;28;45365;-52
2022/06/08 03:00:11;;;;;;;;;3.00;2.00;;;;;19.40;59.52;100332.41;4996636;28;45364;-50
2022/06/08 03:02:58;;;;;;;;;4.75;3.50;;;;;19.48;59.35;100351.34;4997858;28;45584;-54
2022/06/08 03:05:31;;;;;;;;;3.20;3.20;;;;;19.47;60.34;100346.84;4997539;28;45621;-52
2022/06/08 03:08:01;;;;;;;;;5.00;3.20;;;;;19.39;61.35;100348.28;5028375;28;45460;-54
2022/06/08 03:10:30;;;;;;;;;2.00;2.00;;;;;19.18;61.91;100303.81;5012990;28;45530;-53
2022/06/08 03:13:06;;;;;;;;;1.40;1.40;;;;;19.23;62.12;100316.88;4999162;28;45309;-53
2022/06/08 03:15:31;;;;;;;;;5.60;4.00;;;;;19.30;62.45;100320.19;4974980;28;45410;-51
2022/06/08 03:17:57;;;;;;;;;4.00;3.00;;;;;19.20;62.40;100296.00;4976794;28;45366;-53
2022/06/08 03:20:23;;;;;;;;;3.75;3.75;;;;;19.08;62.84;100276.84;4978047;28;45283;-52
2022/06/08 03:22:49;;;;;;;;;3.60;2.80;;;;;19.11;62.81;100286.59;4976958;28;45396;-53
2022/06/08 03:25:14;;;;;;;;;3.75;3.75;;;;;19.18;62.52;100283.50;4977700;28;45923;-51
2022/06/08 03:27:42;;;;;;;;;0.75;0.75;;;;;19.17;62.53;100279.06;4977598;28;45393;-53
2022/06/08 03:30:08;;;;;;;;;3.00;3.00;;;;;19.03;63.00;100267.66;4977640;28;45271;-55
2022/06/08 03:32:34;;;;;;;;;2.60;2.60;;;;;19.07;62.96;100277.97;4976924;28;45660;-57
2022/06/08 03:34:59;;;;;;;;;2.00;2.00;;;;;19.07;63.01;100285.47;4977487;28;45799;-52
2022/06/08 03:37:25;;;;;;;;;2.50;1.50;;;;;18.94;62.65;100279.34;4977899;28;45253;-51
2022/06/08 03:39:50;;;;;;;;;2.00;2.00;;;;;19.02;63.34;100280.75;4977232;28;45252;-54
2022/06/08 03:42:16;;;;;;;;;3.50;2.25;;;;;19.01;63.38;100281.84;4977654;28;45660;-53
2022/06/08 03:44:41;;;;;;;;;5.50;3.00;;;;;19.06;63.87;100279.06;4977241;28;46719;-54
2022/06/08 03:47:12;;;;;;;;;6.00;3.00;;;;;19.09;63.50;100280.44;4983960;28;45395;-51
2022/06/08 03:49:37;;;;;;;;;4.20;2.00;;;;;19.03;63.88;100268.50;4995898;28;45395;-53
2022/06/08 03:52:05;;;;;;;;;3.50;3.00;;;;;18.93;63.98;100257.34;5012010;28;45487;-53
2022/06/08 03:54:33;;;;;;;;;7.40;4.40;;;;;18.92;64.08;100267.66;5028321;28;46601;-55
2022/06/08 03:57:00;;;;;;;;;2.20;2.20;;;;;18.88;64.48;100266.53;4995343;28;45406;-55
2022/06/08 03:59:25;;;;;;;;;3.20;3.20;;;;;18.89;64.73;100273.78;4995653;28;45426;-52
2022/06/08 04:01:51;;;;;;;;;3.25;2.00;;;;;18.86;64.12;100259.59;4995715;28;45689;-55
2022/06/08 04:04:16;;;;;;;;;4.50;3.00;;;;;18.58;63.84;100226.56;5028192;28;46602;-51
2022/06/08 04:06:43;;;;;;;;;4.00;3.00;;;;;18.65;63.90;100235.44;4996497;28;45424;-56
2022/06/08 04:09:09;;;;;;;;;2.40;1.80;;;;;18.80;64.01;100265.16;4995256;28;45424;-56
2022/06/08 04:11:34;;;;;;;;;4.00;4.00;;;;;18.76;64.62;100258.50;4996625;28;45359;-55
2022/06/08 04:14:00;;;;;;;;;5.50;3.00;;;;;18.79;64.49;100246.00;4995344;28;46172;-54
2022/06/08 04:16:27;;;;;;;;;3.25;3.00;;;;;18.52;64.54;100219.34;4996173;28;45378;-55
2022/06/08 04:18:53;;;;;;;;;3.80;3.00;;;;;18.68;64.81;100262.66;4996185;28;45344;-51
2022/06/08 04:21:19;;;;;;;;;4.25;3.00;;;;;18.58;65.34;100250.72;4996399;28;45299;-53
2022/06/08 04:23:45;;;;;;;;;3.00;3.00;;;;;18.58;65.38;100240.44;5028402;28;45829;-58
2022/06/08 04:26:11;;;;;;;;;3.80;3.80;;;;;18.57;65.51;100235.97;5027936;28;45413;-54
2022/06/08 04:28:36;;;;;;;;;5.00;3.00;;;;;18.51;65.77;100229.59;4996330;28;45412;-50
2022/06/08 04:31:02;;;;;;;;;5.00;3.25;;;;;18.52;65.83;100219.34;4996244;28;45414;-53
2022/06/08 04:33:27;;;;;;;;;7.25;4.00;;;;;18.44;65.99;100215.16;4995879;28;45533;-54
2022/06/08 04:35:53;;;;;;;;;4.50;3.25;;;;;18.48;65.77;100219.06;4996294;28;45444;-54
2022/06/08 04:38:18;;;;;;;;;6.00;3.75;;;;;18.50;66.03;100227.94;4996199;28;45418;-51
2022/06/08 04:40:44;;;;;;;;;4.50;3.50;;;;;18.38;66.23;100213.50;4996684;28;45362;-54
2022/06/08 04:43:10;;;;;;;;;3.00;3.00;;;;;18.50;66.47;100230.72;4996290;28;45956;-55
2022/06/08 04:45:36;;;;;;;;;8.00;4.00;;;;;18.31;66.64;100197.13;5027815;28;45411;-53
2022/06/08 04:48:03;;;;;;;;;2.20;2.00;;;;;18.25;66.79;100195.44;4982975;28;45357;-53
2022/06/08 04:50:28;;;;;;;;;3.20;3.20;;;;;18.40;66.76;100216.81;4975393;28;45392;-54
2022/06/08 04:52:54;;;;;;;;;6.25;4.50;;;;;18.43;67.18;100217.09;4976492;28;46144;-55
2022/06/08 04:55:20;;;;;;;;;6.00;4.75;;;;;18.43;66.62;100216.28;4976470;28;45307;-54
2022/06/08 04:57:45;;;;;;;;;4.50;3.25;;;;;18.30;66.88;100203.75;4976417;28;45697;-54
2022/06/08 05:00:13;;;;;;;;;4.00;2.75;;;;;18.34;67.52;100209.59;4976825;28;45465;-54
2022/06/08 05:02:44;;;;;;;;;3.80;3.80;;;;;18.29;67.75;100202.94;4946794;28;45988;-54
2022/06/08 05:05:16;;;;;;;;;4.60;3.60;;;;;18.16;67.26;100186.81;4954464;28;45646;-51
2022/06/08 05:07:42;;;;;;;;;5.00;4.00;;;;;18.14;67.43;100203.75;4953282;28;45339;-52
2022/06/08 05:10:08;;;;;;;;;5.25;2.25;;;;;18.07;67.58;100188.47;4972203;28;45673;-55
2022/06/08 05:12:36;;;;;;;;;3.40;2.80;;;;;17.98;67.86;100180.66;4955361;28;45426;-54
2022/06/08 05:15:06;;;;;;;;;2.80;2.80;;;;;18.10;67.79;100196.25;4956715;28;45429;-55
2022/06/08 05:17:32;;;;;;;;;5.40;3.20;;;;;18.16;67.91;100192.38;4956557;28;45444;-55
2022/06/08 05:19:57;;;;;;;;;5.20;5.00;;;;;18.23;67.74;100190.16;4956992;28;45552;-54
2022/06/08 05:22:23;;;;;;;;;3.00;3.00;;;;;18.24;67.20;100193.75;4956441;28;45858;-53
2022/06/08 05:24:49;;;;;;;;;5.00;4.00;;;;;18.14;67.26;100189.88;4956104;28;45491;-55
2022/06/08 05:27:14;;;;;;;;;4.60;3.00;;;;;18.13;67.68;100185.44;4956432;28;45389;-56
2022/06/08 05:29:40;;;;;;;;;6.25;5.00;;;;;18.18;67.20;100186.56;4956266;28;45680;-55
2022/06/08 05:32:06;;;;;;;;;2.25;2.25;;;;;18.08;67.74;100181.81;4959316;28;46466;-56
2022/06/08 05:34:31;;;;;;;;;2.00;2.00;;;;;18.15;67.87;100185.16;4958644;28;45424;-53
2022/06/08 05:36:57;;;;;;;;;5.25;3.00;;;;;18.12;67.29;100182.91;4958480;28;45488;-53
2022/06/08 05:39:22;;;;;;;;;3.00;2.00;;;;;18.19;67.05;100180.69;4959766;28;45453;-53
2022/06/08 05:41:48;;;;;;;;;2.75;2.25;;;;;17.98;67.56;100177.88;4959411;28;46478;-58
2022/06/08 05:44:13;;;;;;;;;4.50;4.50;;;;;18.06;67.27;100182.09;4959956;28;45448;-49
2022/06/08 05:46:39;;;;;;;;;3.25;2.00;;;;;18.01;67.69;100169.03;4959829;28;45380;-54
2022/06/08 05:49:04;;;;;;;;;1.50;1.50;;;;;18.05;67.93;100182.34;4999271;28;45354;-56
2022/06/08 05:51:30;;;;;;;;;3.00;3.00;;;;;18.08;67.64;100179.06;4998852;28;46741;-55
2022/06/08 05:53:56;;;;;;;;;4.40;2.60;;;;;18.00;67.94;100159.00;4998644;28;45359;-53
2022/06/08 05:56:21;;;;;;;;;2.25;2.25;;;;;18.01;67.97;100159.84;4999016;28;45409;-52
2022/06/08 05:58:47;;;;;;;;;2.00;2.00;;;;;18.13;68.17;100176.25;4999016;28;45435;-52
2022/06/08 06:01:12;;;;;;;;;4.50;4.50;;;;;18.11;67.77;100176.56;4998513;28;45396;-52
2022/06/08 06:03:38;;;;;;;;;3.00;3.00;;;;;18.11;68.07;100172.94;4998647;28;45410;-57
2022/06/08 06:06:03;;;;;;;;;2.75;2.75;;;;;17.82;67.43;100143.72;4998554;28;45387;-56
2022/06/08 06:08:29;;;;;;;;;3.50;2.00;;;;;18.08;68.15;100177.09;4998803;28;45379;-52
2022/06/08 06:10:54;;;;;;;;;3.00;3.00;;;;;18.10;68.31;100183.19;4998655;28;46320;-52
2022/06/08 06:13:20;;;;;;;;;2.00;2.00;;;;;18.15;68.05;100183.19;4998252;28;45263;-54
2022/06/08 06:15:46;;;;;;;;;5.20;4.20;;;;;18.14;68.01;100177.91;4998650;28;45401;-53
2022/06/08 06:18:11;;;;;;;;;2.00;2.00;;;;;18.14;68.12;100173.22;4998458;28;45370;-53
2022/06/08 06:20:37;;;;;;;;;3.00;3.00;;;;;18.07;68.22;100175.44;4997300;28;46805;-53
2022/06/08 06:23:03;;;;;;;;;2.20;2.20;;;;;18.18;68.25;100192.09;5013382;28;45730;-52
2022/06/08 06:25:28;;;;;;;;;3.00;2.25;;;;;17.96;68.40;100148.72;4997375;28;45323;-56
2022/06/08 06:27:54;;;;;;;;;1.75;1.75;;;;;18.14;68.35;100181.53;5030604;28;45493;-56
2022/06/08 06:30:19;;;;;;;;;2.75;1.00;;;;;17.96;68.53;100151.50;4997924;28;46658;-53
2022/06/08 06:32:45;;;;;;;;;2.75;2.00;;;;;18.16;68.85;100192.38;4998219;28;45421;-54
2022/06/08 06:35:23;;;;;;;;;2.75;2.75;;;;;18.12;68.98;100188.47;4998318;28;45207;-56
2022/06/08 06:37:49;;;;;;;;;2.00;1.20;;;;;18.15;68.77;100193.50;4975599;28;45627;-58
2022/06/08 06:40:14;;;;;;;;;4.00;4.00;;;;;18.18;68.47;100194.88;4969011;28;46625;-52
2022/06/08 06:42:40;;;;;;;;;2.50;2.50;;;;;18.10;68.44;100191.53;4978066;28;45300;-55
2022/06/08 06:45:06;;;;;;;;;2.75;2.00;;;;;18.06;68.72;100189.56;4977217;28;45326;-57
2022/06/08 06:47:32;;;;;;;;;2.40;2.00;;;;;17.98;68.61;100172.31;4982860;28;45429;-56
2022/06/08 06:49:57;;;;;;;;;1.25;1.25;;;;;18.11;69.17;100195.16;4998206;28;45672;-52
2022/06/08 06:52:23;;;;;;;;;3.50;2.25;;;;;18.17;68.55;100198.75;4997656;28;45369;-54
2022/06/08 06:54:48;;;;;;;;;3.75;3.00;;;;;18.12;69.34;100188.47;5029896;28;45430;-56
2022/06/08 06:57:14;;;;;;;;;1.50;1.00;;;;;18.15;68.97;100204.59;4998249;28;45346;-58
2022/06/08 06:59:40;;;;;;;;;2.00;2.00;;;;;18.17;69.32;100196.81;4996347;28;45970;-54
2022/06/08 07:02:18;;;;;;;;;2.40;2.40;;;;;18.19;69.29;100193.78;5012927;28;45241;-56
2022/06/08 07:04:43;;;;;;;;;1.40;1.40;;;;;18.19;68.77;100205.69;4996781;28;45400;-58
2022/06/08 07:07:09;;;;;;;;;2.00;2.00;;;;;18.14;68.91;100200.97;4979221;28;45465;-54
2022/06/08 07:09:34;;;;;;;;;4.00;3.00;;;;;17.93;68.84;100164.00;4968802;28;46529;-56
2022/06/08 07:12:00;;;;;;;;;1.00;1.00;;;;;18.11;69.24;100204.31;4960378;28;45229;-53
2022/06/08 07:14:25;;;;;;;;;5.75;2.75;;;;;18.09;69.54;100200.16;4977760;28;45185;-55
2022/06/08 07:16:52;;;;;;;;;5.50;4.00;;;;;18.08;69.57;100204.84;4977938;28;45316;-54
2022/06/08 07:19:17;;;;;;;;;3.60;3.20;;;;;18.07;69.34;100203.19;4974128;28;46786;-50
2022/06/08 07:21:43;;;;;;;;;5.00;2.25;;;;;18.09;69.70;100203.75;4974173;28;45264;-50
2022/06/08 07:24:10;;;;;;;;;1.00;1.00;;;;;18.07;69.74;100200.41;4970761;28;45413;-54
2022/06/08 07:26:35;;;;;;;;;3.80;2.00;;;;;18.08;69.47;100204.03;5010621;28;45415;-55
2022/06/08 07:29:01;;;;;;;;;2.00;2.00;;;;;18.07;69.82;100202.34;4995292;28;46311;-52
2022/06/08 07:31:26;;;;;;;;;2.00;2.00;;;;;17.98;69.78;100188.16;4996031;28;45387;-55
2022/06/08 07:33:52;;;;;;;;;2.00;1.00;;;;;18.10;69.55;100208.19;4995326;28;45400;-55
2022/06/08 07:36:17;;;;;;;;;1.25;1.25;;;;;18.11;69.97;100209.03;4994596;28;45731;-56
2022/06/08 07:38:43;;;;;;;;;5.75;1.75;;;;;18.13;69.75;100207.66;4976253;28;46239;-50
2022/06/08 07:41:09;;;;;;;;;1.75;1.75;;;;;18.21;69.22;100208.19;4950594;28;45642;-53
2022/06/08 07:43:34;;;;;;;;;2.50;1.75;;;;;18.22;69.54;100207.09;4976239;28;45479;-56
2022/06/08 07:46:00;;;;;;;;;1.75;1.00;;;;;18.22;69.59;100205.16;4975289;28;45383;-52
2022/06/08 07:51:09;;;;;;;;;1.40;1.00;;;;;18.32;69.32;100196.00;4996163;28;45466;-54
2022/06/08 07:53:35;;;;;;;;;2.50;1.00;;;;;18.39;69.40;100199.34;4979253;28;45449;-51
2022/06/08 07:56:00;;;;;;;;;1.50;1.25;;;;;18.14;69.54;100164.03;4975863;28;45600;-57
2022/06/08 07:58:26;;;;;;;;;5.25;4.25;;;;;18.36;69.47;100205.44;4976503;28;45841;-60
2022/06/08 08:00:53;;;;;;;;;1.50;1.50;;;;;18.44;69.33;100198.50;4975645;28;45445;-56
2022/06/08 08:03:19;;;;;;;;;0.60;0.60;;;;;18.39;68.67;100162.38;4977066;28;45453;-58
2022/06/08 08:05:45;;;;;;;;;2.25;0.75;;;;;18.38;68.66;100146.81;4975526;28;45433;-50
2022/06/08 08:08:11;;;;;;;;;3.40;1.40;;;;;18.80;68.64;100205.97;4976940;28;46227;-53
2022/06/08 08:10:36;;;;;;;;;3.40;1.20;;;;;18.86;68.33;100188.16;4975768;28;45427;-55
2022/06/08 08:13:02;;;;;;;;;2.00;1.00;;;;;19.04;67.88;100186.75;4976887;28;45382;-59
2022/06/08 08:15:28;;;;;;;;;1.25;1.25;;;;;19.08;67.50;100184.22;4977271;28;45561;-55
2022/06/08 08:17:54;;;;;;;;;2.75;2.75;;;;;19.22;67.03;100196.41;4974978;28;46703;-55
2022/06/08 08:20:19;;;;;;;;;1.00;1.00;;;;;19.39;67.33;100192.47;4941754;28;45380;-53
2022/06/08 08:22:46;;;;;;;;;5.00;2.00;;;;;19.54;66.71;100196.28;4963998;28;45745;-55
2022/06/08 08:25:14;;;;;;;;;7.20;2.40;;;;;19.62;66.41;100187.34;4953338;28;45611;-52
2022/06/08 08:27:40;;;;;;;;;2.00;0.80;;;;;19.71;66.13;100176.44;4980074;28;45654;-54
2022/06/08 08:30:06;;;;;;;;;4.50;3.00;;;;;19.82;65.95;100180.00;4991674;28;45433;-53
2022/06/08 08:32:31;;;;;;;;;2.60;2.60;;;;;19.85;65.54;100171.88;4992156;28;45471;-52
2022/06/08 08:34:57;;;;;;;;;2.00;0.00;;;;;19.79;65.47;100178.59;4990831;28;46001;-52
2022/06/08 08:37:22;;;;;;;;;0.00;0.00;;;;;19.57;65.89;100165.09;4992141;28;46230;-53
2022/06/08 08:39:48;;;;;;;;;0.50;0.50;;;;;19.00;65.31;100096.63;4987019;28;45393;-53
2022/06/08 08:42:20;;;;;;;;;0.25;0.00;;;;;19.56;66.48;100194.91;4966329;28;45774;-53
2022/06/08 08:45:25;;;;;;;;;1.00;0.00;;;;;19.36;67.28;100196.66;4959507;28;45465;-55
2022/06/08 08:47:54;;;;;;;;;2.80;0.00;;;;;19.39;66.83;100199.97;4962373;28;45793;-56
2022/06/08 08:50:44;;;;;;;;;0.60;0.60;;;;;19.34;67.20;100201.69;4987130;28;45560;-51
2022/06/08 08:53:10;;;;;;;;;1.00;1.00;;;;;19.33;67.31;100213.91;4972237;28;45529;-49
2022/06/08 08:55:50;;;;;;;;;3.00;1.00;;;;;19.17;67.58;100188.13;4971102;28;45795;-52
2022/06/08 08:58:21;;;;;;;;;0.00;0.00;;;;;19.16;67.26;100177.25;4972002;28;45918;-52
2022/06/08 09:00:51;;;;;;;;;1.00;1.00;;;;;19.20;67.32;100215.34;4962476;28;45483;-49
2022/06/08 09:03:30;;;;;;;;;0.20;0.00;;;;;19.00;68.52;100224.53;4969634;28;45456;-51
2022/06/08 09:06:01;;;;;;;;;0.60;0.60;;;;;18.73;68.52;100161.75;4977376;28;45370;-53
2022/06/08 09:08:26;;;;;;;;;1.20;0.80;;;;;19.06;68.64;100217.88;5008526;28;45554;-51
2022/06/08 09:10:52;;;;;;;;;0.50;0.50;;;;;18.87;67.78;100189.81;5026191;28;45513;-52
2022/06/08 09:13:30;;;;;;;;;4.00;3.00;;;;;19.09;68.87;100203.41;5008991;28;45473;-49
2022/06/08 09:15:56;;;;;;;;;2.00;2.00;;;;;19.39;67.58;100202.75;4993804;28;45827;-51
2022/06/08 09:18:34;;;;;;;;;0.60;0.60;;;;;19.55;67.22;100207.16;4993926;28;46131;-52
2022/06/08 09:21:01;;;;;;;;;1.00;0.20;;;;;19.59;66.66;100193.50;4980403;28;45489;-53
2022/06/08 09:23:42;;;;;;;;;0.40;0.40;;;;;19.81;66.15;100215.38;5008699;28;45740;-49
2022/06/08 09:26:28;;;;;;;;;1.00;1.00;;;;;19.57;66.23;100171.50;4994384;28;45441;-51
2022/06/08 09:29:15;;;;;;;;;1.40;1.40;;;;;19.77;66.02;100203.13;4974423;28;46005;-53
2022/06/08 09:31:41;;;;;;;;;1.60;1.60;;;;;19.79;66.36;100209.22;4973014;28;46156;-52
2022/06/08 09:34:20;;;;;;;;;1.00;1.00;;;;;19.61;65.83;100178.19;4973270;28;45495;-57
2022/06/08 09:36:46;;;;;;;;;2.00;2.00;;;;;19.89;66.19;100202.78;4974312;28;45441;-53
2022/06/08 09:39:17;;;;;;;;;2.80;2.00;;;;;20.08;65.47;100204.91;4971435;28;45641;-54
2022/06/08 09:41:47;;;;;;;;;2.00;2.00;;;;;20.16;65.23;100177.28;4972791;28;45954;-52
2022/06/08 09:44:15;;;;;;;;;4.40;1.80;;;;;20.47;64.96;100203.22;4940657;28;45589;-53
2022/06/08 09:53:06;;;;;;;;;0.40;0.40;;;;;20.77;62.15;100201.28;5000417;28;45689;-52
2022/06/08 09:55:38;;;;;;;;;2.00;1.20;;;;;20.90;61.95;100200.59;4983819;28;45413;-50
2022/06/08 09:58:31;;;;;;;;;0.60;0.60;;;;;20.96;60.79;100195.78;4994066;28;45842;-51
2022/06/08 10:01:32;;;;;;;;;1.60;1.60;;;;;20.68;61.44;100159.25;4976426;28;47379;-49
2022/06/08 10:04:37;;;;;;;;;0.60;0.60;;;;;20.92;62.20;100189.16;4964710;28;45685;-49
2022/06/08 10:07:17;;;;;;;;;1.60;0.60;;;;;20.81;60.83;100174.47;4940354;28;45548;-52
2022/06/08 10:09:55;;;;;;;;;0.60;0.60;;;;;20.83;61.24;100183.38;4956215;28;45753;-49
2022/06/08 10:12:47;;;;;;;;;2.40;0.80;;;;;20.48;59.69;100144.41;4970377;28;46992;-50
2022/06/08 10:15:34;;;;;;;;;0.40;0.40;;;;;20.62;59.74;100160.44;4977408;28;45470;-52
2022/06/08 10:18:17;;;;;;;;;1.20;1.20;;;;;20.74;60.48;100163.66;4978138;28;45790;-51
2022/06/08 10:20:52;;;;;;;;;2.60;1.60;;;;;20.83;60.79;100155.47;4978250;28;45406;-52
2022/06/08 10:23:50;;;;;;;;;1.00;1.00;;;;;21.09;59.50;100166.38;4977370;28;45640;-51
2022/06/08 10:26:36;;;;;;;;;2.00;2.00;;;;;21.17;59.45;100173.28;4978596;28;45446;-51
2022/06/08 10:29:11;;;;;;;;;1.00;1.00;;;;;21.28;58.83;100165.59;4977558;28;45369;-49
2022/06/08 10:31:51;;;;;;;;;1.00;1.00;;;;;21.41;57.99;100162.06;4977200;28;45328;-49
2022/06/08 10:34:22;;;;;;;;;0.80;0.80;;;;;21.27;57.96;100150.81;4978344;28;45613;-50
2022/06/08 10:36:49;;;;;;;;;1.60;0.80;;;;;21.09;58.33;100185.91;4976728;28;45344;-50
2022/06/08 10:39:15;;;;;;;;;0.00;0.00;;;;;20.83;59.76;100183.38;4961181;28;45872;-53
2022/06/08 10:44:47;;;;;;;;;3.00;0.60;;;;;20.33;62.61;100186.34;4977352;28;45813;-51
2022/06/08 10:47:13;;;;;;;;;3.00;2.20;;;;;20.25;62.77;100188.63;4977483;28;45474;-53
2022/06/08 10:49:38;;;;;;;;;3.00;2.25;;;;;19.97;62.92;100154.88;4990709;28;45362;-52
2022/06/08 10:52:19;;;;;;;;;3.00;3.00;;;;;20.07;63.05;100192.13;4997895;28;45675;-52
2022/06/08 10:54:55;;;;;;;;;5.20;2.60;;;;;19.67;63.86;100156.69;4978254;28;48763;-49
2022/06/08 10:57:36;;;;;;;;;3.60;3.60;;;;;19.87;64.11;100199.44;4954336;28;45332;-49
2022/06/08 11:00:19;;;;;;;;;1.80;1.80;;;;;19.94;64.53;100204.72;4978157;28;45331;-52
2022/06/08 11:02:49;;;;;;;;;4.40;4.40;;;;;20.06;64.41;100204.38;4978030;28;45375;-50
2022/06/08 11:05:31;;;;;;;;;3.20;2.60;;;;;20.17;64.10;100178.94;4976926;28;46605;-50
2022/06/08 11:08:06;;;;;;;;;3.00;3.00;;;;;20.59;64.18;100210.06;4977825;28;45633;-51
2022/06/08 11:10:57;;;;;;;;;3.60;2.60;;;;;20.53;63.97;100149.94;4978343;28;45364;-52
2022/06/08 11:13:25;;;;;;;;;4.60;3.80;;;;;21.07;63.24;100204.91;4978091;28;45419;-54
2022/06/08 11:15:54;;;;;;;;;4.60;4.60;;;;;21.12;61.83;100177.78;4977768;28;46474;-50
2022/06/08 11:18:25;;;;;;;;;5.20;3.00;;;;;21.11;61.78;100197.59;4977485;28;45315;-47
2022/06/08 11:21:15;;;;;;;;;2.00;2.00;;;;;20.89;61.29;100207.31;4978025;28;45459;-49
2022/06/08 11:23:59;;;;;;;;;3.80;1.20;;;;;20.72;61.60;100200.19;4978238;28;45505;-49
2022/06/08 11:26:48;;;;;;;;;2.80;2.80;;;;;20.77;61.71;100190.97;4942874;28;46525;-51
2022/06/08 11:29:16;;;;;;;;;4.40;3.60;;;;;20.91;61.40;100202.25;4989316;28;45788;-51
2022/06/08 11:31:42;;;;;;;;;4.80;4.80;;;;;21.06;60.55;100197.63;4963365;28;46502;-53
2022/06/08 11:34:20;;;;;;;;;5.75;5.75;;;;;21.18;59.64;100181.31;4982773;28;45791;-56
2022/06/08 11:37:12;;;;;;;;;2.00;2.00;;;;;21.29;58.65;100161.69;5023818;28;45799;-53
2022/06/08 11:40:10;;;;;;;;;2.80;2.80;;;;;21.57;57.69;100184.19;4992533;28;45459;-55
2022/06/08 11:42:49;;;;;;;;;2.20;2.20;;;;;21.72;56.95;100158.06;5017279;28;45393;-55
2022/06/08 11:45:18;;;;;;;;;2.40;2.40;;;;;21.85;55.71;100178.78;4974075;28;45434;-52
2022/06/08 11:47:52;;;;;;;;;2.00;2.00;;;;;21.77;55.64;100194.28;5024177;28;45899;-53
2022/06/08 11:50:23;;;;;;;;;4.20;4.00;;;;;21.78;55.25;100176.41;5005897;28;45619;-50
2022/06/08 11:53:03;;;;;;;;;1.60;1.40;;;;;21.58;55.58;100161.56;4972303;28;45830;-52